sensor_id;sensor_type;location;lat;lon;timestamp;pressure;altitude;pressure_sealevel;temperature;humidity
51081;BME280;37130;55.670;37.596;2023-07-20T00:02:21;98064.50;;;12.87;81.28
51081;BME280;37130;55.670;37.596;2023-07-20T00:04:48;98137.84;;;13.22;81.07
51081;BME280;37130;55.670;37.596;2023-07-20T00:07:16;98127.22;;;13.22;80.75
51081;BME280;37130;55.670;37.596;2023-07-20T00:09:43;98130.97;;;13.20;80.30
51081;BME280;37130;55.670;37.596;2023-07-20T00:12:11;98098.53;;;12.93;80.85
51081;BME280;37130;55.670;37.596;2023-07-20T00:14:39;98128.72;;;13.04;81.32
51081;BME280;37130;55.670;37.596;2023-07-20T00:17:06;98062.66;;;12.56;81.18
51081;BME280;37130;55.670;37.596;2023-07-20T00:19:34;98139.09;;;13.07;81.13
51081;BME280;37130;55.670;37.596;2023-07-20T00:22:02;98089.53;;;12.74;81.00
51081;BME280;37130;55.670;37.596;2023-07-20T00:24:31;98126.81;;;12.94;81.18
51081;BME280;37130;55.670;37.596;2023-07-20T00:27:00;98131.41;;;12.92;81.46
51081;BME280;37130;55.670;37.596;2023-07-20T00:29:30;98072.91;;;12.60;81.20
51081;BME280;37130;55.670;37.596;2023-07-20T00:31:58;98117.06;;;12.84;81.40
51081;BME280;37130;55.670;37.596;2023-07-20T00:34:25;98145.63;;;12.91;81.40
51081;BME280;37130;55.670;37.596;2023-07-20T00:36:53;98123.69;;;12.78;81.39
51081;BME280;37130;55.670;37.596;2023-07-20T00:39:22;98136.25;;;12.87;81.52
51081;BME280;37130;55.670;37.596;2023-07-20T00:41:51;98134.56;;;12.86;81.74
51081;BME280;37130;55.670;37.596;2023-07-20T00:44:18;98135.78;;;12.82;81.70
51081;BME280;37130;55.670;37.596;2023-07-20T00:46:46;98136.75;;;12.81;81.89
51081;BME280;37130;55.670;37.596;2023-07-20T00:49:16;98136.50;;;12.73;81.73
51081;BME280;37130;55.670;37.596;2023-07-20T00:51:43;98144.09;;;12.78;81.71
51081;BME280;37130;55.670;37.596;2023-07-20T00:54:11;98140.72;;;12.76;81.78
51081;BME280;37130;55.670;37.596;2023-07-20T00:56:39;98159.19;;;12.77;81.90
51081;BME280;37130;55.670;37.596;2023-07-20T00:59:06;98134.22;;;12.68;82.24
51081;BME280;37130;55.670;37.596;2023-07-20T01:01:34;98093.91;;;12.41;82.44
51081;BME280;37130;55.670;37.596;2023-07-20T01:04:02;98116.13;;;12.51;82.24
51081;BME280;37130;55.670;37.596;2023-07-20T01:06:37;98143.88;;;12.69;81.99
51081;BME280;37130;55.670;37.596;2023-07-20T01:09:15;98151.25;;;12.66;82.35
51081;BME280;37130;55.670;37.596;2023-07-20T01:12:05;98095.38;;;12.22;82.71
51081;BME280;37130;55.670;37.596;2023-07-20T01:14:34;98140.00;;;12.62;83.28
51081;BME280;37130;55.670;37.596;2023-07-20T01:17:03;98104.78;;;12.38;82.95
51081;BME280;37130;55.670;37.596;2023-07-20T01:19:30;98143.97;;;12.68;82.93
51081;BME280;37130;55.670;37.596;2023-07-20T01:30:30;98155.09;;;12.73;82.55
51081;BME280;37130;55.670;37.596;2023-07-20T01:33:02;98109.34;;;12.47;82.96
51081;BME280;37130;55.670;37.596;2023-07-20T01:35:31;98151.97;;;12.79;82.40
51081;BME280;37130;55.670;37.596;2023-07-20T01:38:00;98152.56;;;12.83;82.74
51081;BME280;37130;55.670;37.596;2023-07-20T01:40:29;98109.22;;;12.60;82.67
51081;BME280;37130;55.670;37.596;2023-07-20T01:42:57;98142.53;;;12.86;82.58
51081;BME280;37130;55.670;37.596;2023-07-20T01:45:25;98144.44;;;12.96;82.65
51081;BME280;37130;55.670;37.596;2023-07-20T01:47:52;98148.28;;;13.03;82.15
51081;BME280;37130;55.670;37.596;2023-07-20T01:50:20;98143.56;;;13.06;82.27
51081;BME280;37130;55.670;37.596;2023-07-20T01:52:47;98158.28;;;13.22;81.66
51081;BME280;37130;55.670;37.596;2023-07-20T01:55:15;98157.75;;;13.92;80.48
51081;BME280;37130;55.670;37.596;2023-07-20T01:57:43;98146.63;;;15.70;75.43
51081;BME280;37130;55.670;37.596;2023-07-20T02:00:11;98162.41;;;17.32;70.40
51081;BME280;37130;55.670;37.596;2023-07-20T02:02:42;98155.25;;;18.65;66.65
51081;BME280;37130;55.670;37.596;2023-07-20T02:05:10;98159.66;;;19.75;63.57
51081;BME280;37130;55.670;37.596;2023-07-20T02:07:37;98162.97;;;20.59;61.30
51081;BME280;37130;55.670;37.596;2023-07-20T02:10:05;98157.75;;;21.44;58.94
51081;BME280;37130;55.670;37.596;2023-07-20T02:12:35;98157.91;;;22.35;56.65
51081;BME280;37130;55.670;37.596;2023-07-20T02:15:03;98162.50;;;23.09;54.71
51081;BME280;37130;55.670;37.596;2023-07-20T02:17:33;98148.97;;;23.60;53.59
51081;BME280;37130;55.670;37.596;2023-07-20T02:20:20;98175.84;;;24.54;51.80
51081;BME280;37130;55.670;37.596;2023-07-20T02:22:47;98107.59;;;25.00;50.14
51081;BME280;37130;55.670;37.596;2023-07-20T02:25:19;98167.53;;;25.93;48.18
51081;BME280;37130;55.670;37.596;2023-07-20T02:27:46;98172.56;;;26.56;47.08
51081;BME280;37130;55.670;37.596;2023-07-20T02:30:14;98176.19;;;27.15;45.63
51081;BME280;37130;55.670;37.596;2023-07-20T02:32:43;98182.81;;;27.84;44.08
51081;BME280;37130;55.670;37.596;2023-07-20T02:35:16;98183.22;;;28.45;42.85
51081;BME280;37130;55.670;37.596;2023-07-20T02:37:44;98180.56;;;29.07;41.54
51081;BME280;37130;55.670;37.596;2023-07-20T02:40:12;98186.50;;;29.52;40.57
51081;BME280;37130;55.670;37.596;2023-07-20T02:42:40;98148.06;;;29.05;40.53
51081;BME280;37130;55.670;37.596;2023-07-20T02:45:08;98189.22;;;29.52;39.85
51081;BME280;37130;55.670;37.596;2023-07-20T02:47:35;98188.97;;;30.32;38.19
51081;BME280;37130;55.670;37.596;2023-07-20T02:50:06;98186.97;;;30.98;36.80
51081;BME280;37130;55.670;37.596;2023-07-20T02:52:34;98200.66;;;31.62;35.84
51081;BME280;37130;55.670;37.596;2023-07-20T02:55:01;98210.94;;;32.29;34.96
51081;BME280;37130;55.670;37.596;2023-07-20T02:57:29;98203.31;;;32.82;34.05
51081;BME280;37130;55.670;37.596;2023-07-20T02:59:58;98199.91;;;33.31;33.27
51081;BME280;37130;55.670;37.596;2023-07-20T03:02:25;98216.66;;;34.00;32.00
51081;BME280;37130;55.670;37.596;2023-07-20T03:04:53;98180.81;;;33.90;31.25
51081;BME280;37130;55.670;37.596;2023-07-20T03:07:21;98218.47;;;33.46;31.88
51081;BME280;37130;55.670;37.596;2023-07-20T03:09:48;98184.84;;;33.77;31.26
51081;BME280;37130;55.670;37.596;2023-07-20T03:12:17;98156.53;;;34.04;30.66
51081;BME280;37130;55.670;37.596;2023-07-20T03:14:45;98215.63;;;35.03;29.80
51081;BME280;37130;55.670;37.596;2023-07-20T03:17:12;98214.63;;;35.72;28.72
51081;BME280;37130;55.670;37.596;2023-07-20T03:19:40;98224.94;;;36.33;28.36
51081;BME280;37130;55.670;37.596;2023-07-20T03:22:07;98230.50;;;37.05;27.62
51081;BME280;37130;55.670;37.596;2023-07-20T03:24:35;98226.47;;;37.57;26.69
51081;BME280;37130;55.670;37.596;2023-07-20T03:27:03;98228.44;;;38.06;26.23
51081;BME280;37130;55.670;37.596;2023-07-20T03:29:32;98224.56;;;38.81;25.55
51081;BME280;37130;55.670;37.596;2023-07-20T03:32:00;98239.50;;;39.62;24.35
51081;BME280;37130;55.670;37.596;2023-07-20T03:34:28;98232.53;;;40.08;23.99
51081;BME280;37130;55.670;37.596;2023-07-20T03:36:55;98228.38;;;40.62;23.32
51081;BME280;37130;55.670;37.596;2023-07-20T03:39:23;98235.25;;;40.97;22.64
51081;BME280;37130;55.670;37.596;2023-07-20T03:41:51;98234.81;;;41.37;22.25
51081;BME280;37130;55.670;37.596;2023-07-20T03:44:19;98187.69;;;41.46;21.99
51081;BME280;37130;55.670;37.596;2023-07-20T03:46:47;98231.38;;;42.09;21.22
51081;BME280;37130;55.670;37.596;2023-07-20T03:49:15;98238.47;;;42.52;21.09
51081;BME280;37130;55.670;37.596;2023-07-20T03:51:43;98228.03;;;43.11;20.29
51081;BME280;37130;55.670;37.596;2023-07-20T03:54:10;98235.69;;;43.85;20.05
51081;BME280;37130;55.670;37.596;2023-07-20T03:56:38;98229.66;;;44.61;19.18
51081;BME280;37130;55.670;37.596;2023-07-20T03:59:05;98235.75;;;44.46;19.01
51081;BME280;37130;55.670;37.596;2023-07-20T04:01:33;98224.13;;;41.16;21.41
51081;BME280;37130;55.670;37.596;2023-07-20T04:04:07;98229.06;;;37.88;24.22
51081;BME280;37130;55.670;37.596;2023-07-20T04:06:35;98230.72;;;36.11;26.04
51081;BME280;37130;55.670;37.596;2023-07-20T04:09:03;98227.63;;;34.87;27.04
51081;BME280;37130;55.670;37.596;2023-07-20T04:11:32;98218.22;;;34.51;27.44
51081;BME280;37130;55.670;37.596;2023-07-20T04:13:59;98219.28;;;33.02;28.81
51081;BME280;37130;55.670;37.596;2023-07-20T04:16:27;98191.84;;;31.08;30.45
51081;BME280;37130;55.670;37.596;2023-07-20T04:18:55;98217.69;;;30.05;32.08
51081;BME280;37130;55.670;37.596;2023-07-20T04:21:27;98217.06;;;30.98;31.78
51081;BME280;37130;55.670;37.596;2023-07-20T04:23:55;98220.28;;;32.79;29.65
51081;BME280;37130;55.670;37.596;2023-07-20T04:26:23;98224.59;;;34.88;27.34
51081;BME280;37130;55.670;37.596;2023-07-20T04:28:51;98229.00;;;36.05;26.02
51081;BME280;37130;55.670;37.596;2023-07-20T04:31:32;98230.13;;;39.10;23.61
51081;BME280;37130;55.670;37.596;2023-07-20T04:34:02;98212.78;;;39.23;22.80
51081;BME280;37130;55.670;37.596;2023-07-20T04:36:33;98208.34;;;38.69;23.04
51081;BME280;37130;55.670;37.596;2023-07-20T04:39:00;98245.81;;;38.12;23.84
51081;BME280;37130;55.670;37.596;2023-07-20T04:41:34;98233.75;;;36.20;25.36
51081;BME280;37130;55.670;37.596;2023-07-20T04:44:02;98225.16;;;36.06;25.69
51081;BME280;37130;55.670;37.596;2023-07-20T04:46:30;98220.03;;;38.61;23.57
51081;BME280;37130;55.670;37.596;2023-07-20T04:49:01;98235.59;;;38.57;23.65
51081;BME280;37130;55.670;37.596;2023-07-20T04:51:32;98242.66;;;39.03;23.14
51081;BME280;37130;55.670;37.596;2023-07-20T04:54:00;98245.00;;;41.28;21.28
51081;BME280;37130;55.670;37.596;2023-07-20T04:56:32;98249.81;;;43.09;20.06
51081;BME280;37130;55.670;37.596;2023-07-20T04:59:02;98245.28;;;44.45;18.53
51081;BME280;37130;55.670;37.596;2023-07-20T05:01:30;98204.22;;;45.19;18.03
51081;BME280;37130;55.670;37.596;2023-07-20T05:03:57;98250.38;;;46.02;17.46
51081;BME280;37130;55.670;37.596;2023-07-20T05:06:25;98251.38;;;46.60;16.91
51081;BME280;37130;55.670;37.596;2023-07-20T05:08:53;98260.38;;;46.87;17.21
51081;BME280;37130;55.670;37.596;2023-07-20T05:11:21;98248.78;;;47.09;16.86
51081;BME280;37130;55.670;37.596;2023-07-20T05:13:48;98249.84;;;47.66;16.29
51081;BME280;37130;55.670;37.596;2023-07-20T05:16:16;98250.28;;;48.05;15.90
51081;BME280;37130;55.670;37.596;2023-07-20T05:18:44;98252.84;;;48.63;15.74
51081;BME280;37130;55.670;37.596;2023-07-20T05:21:13;98237.91;;;49.03;15.08
51081;BME280;37130;55.670;37.596;2023-07-20T05:23:41;98255.06;;;49.29;14.46
51081;BME280;37130;55.670;37.596;2023-07-20T05:26:09;98257.31;;;49.55;14.17
51081;BME280;37130;55.670;37.596;2023-07-20T05:28:36;98256.88;;;49.69;14.74
51081;BME280;37130;55.670;37.596;2023-07-20T05:31:04;98249.06;;;49.78;13.83
51081;BME280;37130;55.670;37.596;2023-07-20T05:33:31;98256.63;;;49.94;13.97
51081;BME280;37130;55.670;37.596;2023-07-20T05:35:59;98263.66;;;50.00;14.25
51081;BME280;37130;55.670;37.596;2023-07-20T05:38:26;98255.81;;;50.29;13.91
51081;BME280;37130;55.670;37.596;2023-07-20T05:40:59;98253.91;;;50.33;13.42
51081;BME280;37130;55.670;37.596;2023-07-20T05:43:28;98251.31;;;50.43;13.49
51081;BME280;37130;55.670;37.596;2023-07-20T05:45:56;98247.47;;;50.71;13.20
51081;BME280;37130;55.670;37.596;2023-07-20T05:48:24;98263.56;;;50.71;12.98
51081;BME280;37130;55.670;37.596;2023-07-20T05:50:52;98254.91;;;51.02;12.44
51081;BME280;37130;55.670;37.596;2023-07-20T05:53:19;98248.56;;;51.09;12.64
51081;BME280;37130;55.670;37.596;2023-07-20T05:55:52;98244.22;;;50.92;12.44
51081;BME280;37130;55.670;37.596;2023-07-20T05:58:20;98249.72;;;50.85;12.45
51081;BME280;37130;55.670;37.596;2023-07-20T06:00:49;98250.38;;;50.98;12.87
51081;BME280;37130;55.670;37.596;2023-07-20T06:03:16;98242.31;;;51.19;12.71
51081;BME280;37130;55.670;37.596;2023-07-20T06:05:45;98257.31;;;51.46;12.00
51081;BME280;37130;55.670;37.596;2023-07-20T06:08:13;98254.66;;;51.11;11.92
51081;BME280;37130;55.670;37.596;2023-07-20T06:10:41;98259.63;;;51.41;12.46
51081;BME280;37130;55.670;37.596;2023-07-20T06:13:12;98263.81;;;51.50;11.82
51081;BME280;37130;55.670;37.596;2023-07-20T06:15:39;98252.75;;;51.65;12.20
51081;BME280;37130;55.670;37.596;2023-07-20T06:18:08;98259.97;;;51.62;12.51
51081;BME280;37130;55.670;37.596;2023-07-20T06:20:36;98254.72;;;51.38;11.46
51081;BME280;37130;55.670;37.596;2023-07-20T06:23:03;98261.31;;;51.45;11.69
51081;BME280;37130;55.670;37.596;2023-07-20T06:25:31;98247.59;;;51.44;11.63
51081;BME280;37130;55.670;37.596;2023-07-20T06:27:59;98258.72;;;51.60;11.89
51081;BME280;37130;55.670;37.596;2023-07-20T06:30:26;98257.84;;;51.79;11.25
51081;BME280;37130;55.670;37.596;2023-07-20T06:32:53;98264.09;;;51.68;12.07
51081;BME280;37130;55.670;37.596;2023-07-20T06:35:22;98260.00;;;51.89;11.17
51081;BME280;37130;55.670;37.596;2023-07-20T06:37:49;98265.59;;;52.12;11.39
51081;BME280;37130;55.670;37.596;2023-07-20T06:40:17;98226.91;;;52.20;10.97
51081;BME280;37130;55.670;37.596;2023-07-20T06:42:47;98233.25;;;52.40;10.99
51081;BME280;37130;55.670;37.596;2023-07-20T06:45:18;98248.50;;;52.65;11.05
51081;BME280;37130;55.670;37.596;2023-07-20T06:47:45;98243.94;;;52.23;11.02
51081;BME280;37130;55.670;37.596;2023-07-20T06:50:13;98256.63;;;52.06;11.73
51081;BME280;37130;55.670;37.596;2023-07-20T06:52:44;98264.56;;;51.97;11.56
51081;BME280;37130;55.670;37.596;2023-07-20T06:55:13;98256.38;;;51.88;11.42
51081;BME280;37130;55.670;37.596;2023-07-20T06:57:41;98256.09;;;51.47;11.79
51081;BME280;37130;55.670;37.596;2023-07-20T07:00:14;98242.47;;;51.30;11.90
51081;BME280;37130;55.670;37.596;2023-07-20T07:02:42;98258.97;;;51.51;11.39
51081;BME280;37130;55.670;37.596;2023-07-20T07:05:12;98256.25;;;51.81;11.12
51081;BME280;37130;55.670;37.596;2023-07-20T07:07:46;98248.25;;;52.13;11.53
51081;BME280;37130;55.670;37.596;2023-07-20T07:10:13;98256.91;;;52.58;11.17
51081;BME280;37130;55.670;37.596;2023-07-20T07:12:40;98254.28;;;52.42;10.85
51081;BME280;37130;55.670;37.596;2023-07-20T07:15:09;98254.38;;;52.19;10.94
51081;BME280;37130;55.670;37.596;2023-07-20T07:17:38;98264.16;;;52.25;10.66
51081;BME280;37130;55.670;37.596;2023-07-20T07:20:06;98256.53;;;52.60;11.00
51081;BME280;37130;55.670;37.596;2023-07-20T07:22:37;98262.66;;;52.35;10.47
51081;BME280;37130;55.670;37.596;2023-07-20T07:25:05;98260.59;;;52.02;10.95
51081;BME280;37130;55.670;37.596;2023-07-20T07:27:34;98270.09;;;51.90;11.00
51081;BME280;37130;55.670;37.596;2023-07-20T07:30:03;98259.34;;;52.29;10.58
51081;BME280;37130;55.670;37.596;2023-07-20T07:32:31;98262.97;;;51.46;10.98
51081;BME280;37130;55.670;37.596;2023-07-20T07:34:59;98263.44;;;51.29;11.07
51081;BME280;37130;55.670;37.596;2023-07-20T07:37:31;98264.97;;;51.23;11.92
51081;BME280;37130;55.670;37.596;2023-07-20T07:40:06;98263.59;;;51.36;11.69
51081;BME280;37130;55.670;37.596;2023-07-20T07:42:35;98256.44;;;50.57;11.09
51081;BME280;37130;55.670;37.596;2023-07-20T07:45:04;98253.28;;;50.24;11.56
51081;BME280;37130;55.670;37.596;2023-07-20T07:47:31;98259.41;;;50.45;11.90
51081;BME280;37130;55.670;37.596;2023-07-20T07:49:59;98254.91;;;50.83;11.89
51081;BME280;37130;55.670;37.596;2023-07-20T07:52:27;98258.69;;;50.91;11.99
51081;BME280;37130;55.670;37.596;2023-07-20T07:54:54;98275.06;;;50.81;11.80
51081;BME280;37130;55.670;37.596;2023-07-20T07:57:23;98253.06;;;50.52;11.78
51081;BME280;37130;55.670;37.596;2023-07-20T07:59:50;98259.56;;;50.52;11.62
51081;BME280;37130;55.670;37.596;2023-07-20T08:02:18;98254.41;;;50.38;11.78
51081;BME280;37130;55.670;37.596;2023-07-20T08:04:47;98263.88;;;50.89;11.48
51081;BME280;37130;55.670;37.596;2023-07-20T08:07:15;98264.66;;;51.28;12.20
51081;BME280;37130;55.670;37.596;2023-07-20T08:09:42;98265.22;;;51.64;11.22
51081;BME280;37130;55.670;37.596;2023-07-20T08:12:10;98267.44;;;51.74;10.67
51081;BME280;37130;55.670;37.596;2023-07-20T08:14:37;98269.94;;;51.79;10.61
51081;BME280;37130;55.670;37.596;2023-07-20T08:17:04;98261.69;;;50.59;11.08
51081;BME280;37130;55.670;37.596;2023-07-20T08:19:32;98251.78;;;49.11;12.21
51081;BME280;37130;55.670;37.596;2023-07-20T08:22:00;98256.16;;;48.24;13.24
51081;BME280;37130;55.670;37.596;2023-07-20T08:24:27;98253.31;;;46.47;13.47
51081;BME280;37130;55.670;37.596;2023-07-20T08:26:55;98222.50;;;45.08;14.11
51081;BME280;37130;55.670;37.596;2023-07-20T08:29:23;98250.59;;;43.72;15.16
51081;BME280;37130;55.670;37.596;2023-07-20T08:31:51;98248.25;;;42.72;15.72
51081;BME280;37130;55.670;37.596;2023-07-20T08:34:19;98236.94;;;42.90;15.84
51081;BME280;37130;55.670;37.596;2023-07-20T08:36:58;98201.06;;;42.08;16.39
51081;BME280;37130;55.670;37.596;2023-07-20T08:39:26;98238.53;;;41.32;16.11
51081;BME280;37130;55.670;37.596;2023-07-20T08:41:54;98230.97;;;40.02;17.42
51081;BME280;37130;55.670;37.596;2023-07-20T08:44:24;98193.41;;;38.99;18.03
51081;BME280;37130;55.670;37.596;2023-07-20T08:46:53;98203.19;;;38.57;18.07
51081;BME280;37130;55.670;37.596;2023-07-20T08:49:22;98234.44;;;37.69;19.44
51081;BME280;37130;55.670;37.596;2023-07-20T08:51:51;98226.06;;;36.83;20.42
51081;BME280;37130;55.670;37.596;2023-07-20T08:54:19;98154.81;;;35.68;21.12
51081;BME280;37130;55.670;37.596;2023-07-20T08:56:47;98215.97;;;35.65;22.14
51081;BME280;37130;55.670;37.596;2023-07-20T08:59:16;98218.16;;;35.10;22.34
51081;BME280;37130;55.670;37.596;2023-07-20T09:01:44;98221.63;;;34.58;22.47
51081;BME280;37130;55.670;37.596;2023-07-20T09:04:13;98214.47;;;34.02;23.18
51081;BME280;37130;55.670;37.596;2023-07-20T09:06:40;98220.91;;;33.42;24.09
51081;BME280;37130;55.670;37.596;2023-07-20T09:09:11;98218.13;;;32.81;24.52
51081;BME280;37130;55.670;37.596;2023-07-20T09:11:40;98213.72;;;32.63;24.90
51081;BME280;37130;55.670;37.596;2023-07-20T09:14:09;98220.25;;;32.45;25.83
51081;BME280;37130;55.670;37.596;2023-07-20T09:16:52;98224.22;;;31.92;24.89
51081;BME280;37130;55.670;37.596;2023-07-20T09:19:20;98229.97;;;31.50;26.35
51081;BME280;37130;55.670;37.596;2023-07-20T09:21:49;98221.09;;;30.96;26.67
51081;BME280;37130;55.670;37.596;2023-07-20T09:24:20;98226.84;;;30.41;27.32
51081;BME280;37130;55.670;37.596;2023-07-20T09:26:49;98224.06;;;29.87;28.77
51081;BME280;37130;55.670;37.596;2023-07-20T09:29:18;98203.88;;;29.21;29.41
51081;BME280;37130;55.670;37.596;2023-07-20T09:32:02;98150.72;;;28.25;29.49
51081;BME280;37130;55.670;37.596;2023-07-20T09:34:31;98232.94;;;28.65;30.04
51081;BME280;37130;55.670;37.596;2023-07-20T09:37:02;98210.25;;;28.46;29.93
51081;BME280;37130;55.670;37.596;2023-07-20T09:39:30;98233.25;;;28.50;30.58
51081;BME280;37130;55.670;37.596;2023-07-20T09:42:01;98222.16;;;28.20;30.83
51081;BME280;37130;55.670;37.596;2023-07-20T09:44:32;98228.56;;;28.01;31.08
51081;BME280;37130;55.670;37.596;2023-07-20T09:47:03;98227.41;;;27.83;31.17
51081;BME280;37130;55.670;37.596;2023-07-20T09:49:32;98221.50;;;27.93;31.84
51081;BME280;37130;55.670;37.596;2023-07-20T09:52:19;98225.31;;;28.49;31.07
51081;BME280;37130;55.670;37.596;2023-07-20T09:54:51;98216.38;;;29.10;30.68
51081;BME280;37130;55.670;37.596;2023-07-20T09:57:19;98230.63;;;29.67;30.32
51081;BME280;37130;55.670;37.596;2023-07-20T09:59:48;98222.53;;;29.91;30.01
51081;BME280;37130;55.670;37.596;2023-07-20T10:02:21;98219.34;;;30.24;29.96
51081;BME280;37130;55.670;37.596;2023-07-20T10:04:53;98236.84;;;30.47;29.15
51081;BME280;37130;55.670;37.596;2023-07-20T10:07:22;98224.38;;;30.51;29.90
51081;BME280;37130;55.670;37.596;2023-07-20T10:09:53;98234.13;;;30.70;28.96
51081;BME280;37130;55.670;37.596;2023-07-20T10:12:23;98240.66;;;30.46;29.14
51081;BME280;37130;55.670;37.596;2023-07-20T10:15:18;98249.63;;;29.92;29.75
51081;BME280;37130;55.670;37.596;2023-07-20T10:20:41;98251.72;;;28.98;30.67
51081;BME280;37130;55.670;37.596;2023-07-20T10:23:12;98239.19;;;28.91;31.01
51081;BME280;37130;55.670;37.596;2023-07-20T10:25:40;98229.34;;;28.39;31.33
51081;BME280;37130;55.670;37.596;2023-07-20T10:28:10;98239.44;;;27.62;33.27
51081;BME280;37130;55.670;37.596;2023-07-20T10:30:38;98230.13;;;27.11;33.83
51081;BME280;37130;55.670;37.596;2023-07-20T10:33:06;98236.84;;;27.16;34.19
51081;BME280;37130;55.670;37.596;2023-07-20T10:36:01;98225.22;;;27.53;33.35
51081;BME280;37130;55.670;37.596;2023-07-20T10:41:27;98233.66;;;27.39;34.10
51081;BME280;37130;55.670;37.596;2023-07-20T10:44:04;98230.56;;;27.08;34.33
51081;BME280;37130;55.670;37.596;2023-07-20T10:49:09;98226.69;;;26.58;35.74
51081;BME280;37130;55.670;37.596;2023-07-20T10:51:44;98230.41;;;26.30;35.87
51081;BME280;37130;55.670;37.596;2023-07-20T10:56:49;98245.13;;;25.33;37.67
51081;BME280;37130;55.670;37.596;2023-07-20T10:59:36;98156.69;;;24.27;38.14
51081;BME280;37130;55.670;37.596;2023-07-20T11:02:08;98145.06;;;23.84;39.13
51081;BME280;37130;55.670;37.596;2023-07-20T11:04:40;98239.41;;;24.37;39.94
51081;BME280;37130;55.670;37.596;2023-07-20T11:07:08;98226.88;;;24.57;39.84
51081;BME280;37130;55.670;37.596;2023-07-20T11:09:37;98250.09;;;24.95;39.38
51081;BME280;37130;55.670;37.596;2023-07-20T11:12:24;98247.97;;;24.90;39.02
51081;BME280;37130;55.670;37.596;2023-07-20T11:14:56;98268.66;;;24.69;40.23
51081;BME280;37130;55.670;37.596;2023-07-20T11:17:31;98295.34;;;24.30;40.95
51081;BME280;37130;55.670;37.596;2023-07-20T11:20:00;98300.16;;;23.47;43.42
51081;BME280;37130;55.670;37.596;2023-07-20T11:22:35;98294.84;;;22.71;45.77
51081;BME280;37130;55.670;37.596;2023-07-20T11:25:03;98290.56;;;22.62;46.91
51081;BME280;37130;55.670;37.596;2023-07-20T11:27:30;98284.09;;;22.86;47.13
51081;BME280;37130;55.670;37.596;2023-07-20T11:29:58;98272.78;;;23.20;46.65
51081;BME280;37130;55.670;37.596;2023-07-20T11:32:29;98285.59;;;23.77;46.80
51081;BME280;37130;55.670;37.596;2023-07-20T11:34:57;98228.25;;;23.82;46.30
51081;BME280;37130;55.670;37.596;2023-07-20T11:37:25;98289.13;;;24.36;46.26
51081;BME280;37130;55.670;37.596;2023-07-20T11:39:57;98279.81;;;24.60;45.91
51081;BME280;37130;55.670;37.596;2023-07-20T11:42:24;98276.44;;;25.07;45.34
51081;BME280;37130;55.670;37.596;2023-07-20T11:44:55;98272.25;;;25.40;45.25
51081;BME280;37130;55.670;37.596;2023-07-20T11:47:29;98276.03;;;25.45;45.39
51081;BME280;37130;55.670;37.596;2023-07-20T11:50:02;98274.25;;;25.24;45.14
51081;BME280;37130;55.670;37.596;2023-07-20T11:52:31;98268.22;;;24.66;45.66
51081;BME280;37130;55.670;37.596;2023-07-20T11:55:01;98258.94;;;24.11;46.31
51081;BME280;37130;55.670;37.596;2023-07-20T11:57:30;98253.81;;;23.65;46.94
51081;BME280;37130;55.670;37.596;2023-07-20T12:00:02;98253.97;;;23.27;48.46
51081;BME280;37130;55.670;37.596;2023-07-20T12:02:39;98272.69;;;23.13;48.74
51081;BME280;37130;55.670;37.596;2023-07-20T12:05:07;98273.34;;;23.01;49.30
51081;BME280;37130;55.670;37.596;2023-07-20T12:07:36;98275.97;;;22.86;50.49
51081;BME280;37130;55.670;37.596;2023-07-20T12:10:10;98276.78;;;22.71;50.42
51081;BME280;37130;55.670;37.596;2023-07-20T12:12:42;98279.84;;;23.06;50.94
51081;BME280;37130;55.670;37.596;2023-07-20T12:17:55;98270.19;;;24.14;49.17
51081;BME280;37130;55.670;37.596;2023-07-20T12:20:32;98264.34;;;24.11;49.52
51081;BME280;37130;55.670;37.596;2023-07-20T12:23:01;98276.69;;;23.98;49.83
51081;BME280;37130;55.670;37.596;2023-07-20T12:25:40;98278.69;;;23.90;49.69
51081;BME280;37130;55.670;37.596;2023-07-20T12:28:12;98291.72;;;23.86;50.63
51081;BME280;37130;55.670;37.596;2023-07-20T12:30:42;98274.34;;;23.74;49.75
51081;BME280;37130;55.670;37.596;2023-07-20T12:33:12;98231.31;;;23.43;49.31
51081;BME280;37130;55.670;37.596;2023-07-20T12:35:43;98288.13;;;23.64;49.27
51081;BME280;37130;55.670;37.596;2023-07-20T12:38:11;98282.00;;;23.55;49.36
51081;BME280;37130;55.670;37.596;2023-07-20T12:40:39;98248.91;;;23.24;49.20
51081;BME280;37130;55.670;37.596;2023-07-20T12:43:08;98283.56;;;23.50;48.92
51081;BME280;37130;55.670;37.596;2023-07-20T12:45:35;98278.63;;;23.53;47.39
51081;BME280;37130;55.670;37.596;2023-07-20T12:48:03;98269.38;;;23.62;47.57
51081;BME280;37130;55.670;37.596;2023-07-20T12:50:31;98272.75;;;23.79;46.80
51081;BME280;37130;55.670;37.596;2023-07-20T12:52:59;98276.66;;;24.13;46.39
51081;BME280;37130;55.670;37.596;2023-07-20T12:55:26;98209.91;;;24.20;45.31
51081;BME280;37130;55.670;37.596;2023-07-20T12:57:54;98242.16;;;24.65;44.77
51081;BME280;37130;55.670;37.596;2023-07-20T13:00:22;98278.19;;;24.93;44.23
51081;BME280;37130;55.670;37.596;2023-07-20T13:02:51;98223.81;;;24.60;44.16
51081;BME280;37130;55.670;37.596;2023-07-20T13:05:36;98269.22;;;24.86;43.65
51081;BME280;37130;55.670;37.596;2023-07-20T13:08:06;98195.69;;;24.12;44.53
51081;BME280;37130;55.670;37.596;2023-07-20T13:10:37;98263.00;;;24.21;45.12
51081;BME280;37130;55.670;37.596;2023-07-20T13:13:08;98255.88;;;23.99;45.63
51081;BME280;37130;55.670;37.596;2023-07-20T13:15:43;98257.94;;;23.97;45.70
51081;BME280;37130;55.670;37.596;2023-07-20T13:18:11;98255.31;;;24.25;44.50
51081;BME280;37130;55.670;37.596;2023-07-20T13:20:39;98254.84;;;24.43;44.22
51081;BME280;37130;55.670;37.596;2023-07-20T13:23:07;98235.88;;;24.58;43.60
51081;BME280;37130;55.670;37.596;2023-07-20T13:25:35;98246.91;;;24.91;43.22